Time;durP1;ratioP1;P1;durP2;ratioP2;P2;SDS_P1;SDS_P2;PMS_P1;PMS_P2;Temp;Humidity;BMP_temperature;BMP_pressure;BME280_temperature;BME280_humidity;BME280_pressure;Samples;Min_cycle;Max_cycle;Signal;HPM_P1;HPM_P2
2022/07/04 00:01:22;;;;;;;5.40;1.52;;;12.90;99.90;;;;;;6212535;23;20012;-65
2022/07/04 00:03:48;;;;;;;4.82;1.27;;;12.90;99.90;;;;;;6211073;23;20024;-65
2022/07/04 00:06:14;;;;;;;6.63;1.35;;;12.80;99.90;;;;;;6212996;23;20052;-65
2022/07/04 00:08:39;;;;;;;5.72;1.15;;;12.80;99.90;;;;;;6238781;23;20391;-66
2022/07/04 00:11:05;;;;;;;3.33;1.50;;;12.80;99.90;;;;;;6212537;23;20016;-65
2022/07/04 00:13:31;;;;;;;6.18;1.45;;;12.80;99.90;;;;;;6240004;23;20020;-65
2022/07/04 00:15:56;;;;;;;9.35;1.48;;;12.80;99.90;;;;;;6238006;23;20610;-65
2022/07/04 00:18:22;;;;;;;3.55;1.20;;;12.80;99.90;;;;;;6240255;23;20024;-65
2022/07/04 00:20:52;;;;;;;4.20;1.30;;;12.80;99.90;;;;;;6238058;23;20056;-65
2022/07/04 00:23:18;;;;;;;7.03;1.70;;;12.80;99.90;;;;;;6213219;23;20506;-65
2022/07/04 00:25:44;;;;;;;10.05;2.72;;;12.80;99.90;;;;;;6238155;23;20020;-65
2022/07/04 00:28:09;;;;;;;3.85;1.80;;;12.70;99.90;;;;;;6239429;23;20020;-65
2022/07/04 00:30:35;;;;;;;4.47;1.42;;;12.80;99.90;;;;;;6239527;23;20020;-65
2022/07/04 00:33:01;;;;;;;4.65;1.67;;;12.80;99.90;;;;;;6236814;23;20046;-65
2022/07/04 00:35:27;;;;;;;7.20;1.67;;;12.80;99.90;;;;;;6239696;23;20089;-65
2022/07/04 00:37:52;;;;;;;4.90;1.65;;;12.70;99.90;;;;;;6237719;23;20443;-65
2022/07/04 00:40:18;;;;;;;4.70;1.60;;;12.70;99.90;;;;;;6212567;23;20054;-65
2022/07/04 00:42:44;;;;;;;5.20;1.65;;;12.60;99.90;;;;;;6209823;23;20020;-65
2022/07/04 00:45:10;;;;;;;8.30;2.15;;;12.60;99.90;;;;;;6154524;23;20031;-65
2022/07/04 00:47:35;;;;;;;9.05;2.90;;;12.60;99.90;;;;;;6208920;23;20087;-65
2022/07/04 00:50:01;;;;;;;4.57;2.05;;;12.60;99.90;;;;;;6208122;23;20582;-65
2022/07/04 00:52:28;;;;;;;3.92;1.50;;;12.60;99.90;;;;;;6208889;23;20027;-66
2022/07/04 00:54:53;;;;;;;3.90;1.60;;;12.70;99.90;;;;;;6207420;23;20521;-65
2022/07/04 00:57:20;;;;;;;7.30;1.95;;;12.70;99.90;;;;;;6182282;23;20031;-65
2022/07/04 00:59:45;;;;;;;6.15;1.85;;;12.70;99.90;;;;;;6207228;23;20032;-65
2022/07/04 01:02:11;;;;;;;2.70;1.60;;;12.70;99.90;;;;;;6182205;23;20024;-65
2022/07/04 01:04:37;;;;;;;7.00;1.98;;;12.70;99.90;;;;;;6208059;23;20332;-65
2022/07/04 01:07:04;;;;;;;5.32;2.17;;;12.80;99.90;;;;;;6181928;23;20087;-65
2022/07/04 01:09:30;;;;;;;6.07;1.70;;;12.80;99.90;;;;;;6208475;23;20514;-65
2022/07/04 01:11:55;;;;;;;4.22;1.80;;;12.80;99.90;;;;;;6207131;23;20021;-65
2022/07/04 01:14:21;;;;;;;13.43;4.18;;;12.80;99.90;;;;;;6182270;23;20020;-65
2022/07/04 01:16:47;;;;;;;4.22;1.75;;;12.80;99.90;;;;;;6206742;23;20045;-65
2022/07/04 01:19:12;;;;;;;6.65;2.15;;;12.80;99.90;;;;;;6208996;23;20021;-65
2022/07/04 01:21:39;;;;;;;6.80;2.03;;;12.80;99.90;;;;;;6207748;23;20017;-65
2022/07/04 01:24:04;;;;;;;8.40;1.60;;;12.80;99.90;;;;;;6181517;23;20021;-65
2022/07/04 01:26:30;;;;;;;7.85;1.67;;;12.80;99.90;;;;;;6180888;23;20027;-65
2022/07/04 01:28:56;;;;;;;4.18;1.90;;;12.90;99.90;;;;;;6181254;23;20116;-65
2022/07/04 01:31:22;;;;;;;2.75;1.27;;;12.80;99.90;;;;;;6181511;23;20043;-65
2022/07/04 01:33:48;;;;;;;4.30;1.52;;;12.80;99.90;;;;;;6206895;23;20384;-65
2022/07/04 01:36:13;;;;;;;5.22;1.25;;;12.80;99.90;;;;;;6182159;23;20021;-65
2022/07/04 01:38:39;;;;;;;6.65;1.48;;;12.80;99.90;;;;;;6207507;23;20024;-65
2022/07/04 01:41:05;;;;;;;8.30;1.50;;;12.80;99.90;;;;;;6208010;23;20464;-65
2022/07/04 01:43:30;;;;;;;6.63;1.70;;;12.80;99.90;;;;;;6207651;23;20027;-65
2022/07/04 01:45:56;;;;;;;6.30;1.65;;;12.70;99.90;;;;;;6198629;23;20022;-66
2022/07/04 01:48:22;;;;;;;3.40;1.30;;;12.60;99.90;;;;;;6238892;23;20419;-65
2022/07/04 01:50:47;;;;;;;8.13;1.80;;;12.50;99.90;;;;;;6237301;23;20030;-65
2022/07/04 01:53:13;;;;;;;6.65;1.38;;;12.40;99.90;;;;;;6239291;23;20023;-65
2022/07/04 01:55:39;;;;;;;5.15;1.60;;;12.30;99.90;;;;;;6237456;23;20035;-65
2022/07/04 01:58:05;;;;;;;7.22;1.40;;;12.30;99.90;;;;;;6238771;23;20443;-65
2022/07/04 02:03:14;;;;;;;7.75;1.48;;;12.10;99.90;;;;;;6238908;23;20024;-65
2022/07/04 02:05:42;;;;;;;5.60;1.70;;;12.10;99.90;;;;;;6210776;23;20024;-65
2022/07/04 02:08:08;;;;;;;10.38;1.90;;;12.00;99.90;;;;;;6237104;23;20020;-65
2022/07/04 02:10:34;;;;;;;2.50;1.35;;;11.90;99.90;;;;;;6238687;23;20015;-65
2022/07/04 02:13:03;;;;;;;8.80;1.98;;;11.90;99.90;;;;;;6209708;23;20078;-65
2022/07/04 02:15:40;;;;;;;3.25;1.30;;;11.90;99.90;;;;;;6238579;23;20023;-65
2022/07/04 02:18:11;;;;;;;7.65;1.90;;;12.00;99.90;;;;;;6237119;23;20016;-65
2022/07/04 02:20:37;;;;;;;5.55;1.60;;;12.00;99.90;;;;;;6238730;23;20063;-65
2022/07/04 02:23:05;;;;;;;6.85;2.15;;;12.00;99.90;;;;;;6211192;23;20058;-65
2022/07/04 02:25:30;;;;;;;7.93;2.72;;;12.00;99.90;;;;;;6237167;23;20501;-66
2022/07/04 02:27:56;;;;;;;3.03;1.70;;;12.00;99.90;;;;;;6238073;23;20017;-65
2022/07/04 02:30:23;;;;;;;3.70;1.40;;;12.10;99.90;;;;;;6237459;23;20340;-65
2022/07/04 02:32:49;;;;;;;4.78;2.05;;;12.10;99.90;;;;;;6238537;23;20043;-65
2022/07/04 02:35:14;;;;;;;9.75;1.67;;;12.00;99.90;;;;;;6236303;23;20016;-65
2022/07/04 02:37:41;;;;;;;3.85;1.60;;;12.00;99.90;;;;;;6238499;23;20067;-65
2022/07/04 02:40:08;;;;;;;4.07;1.77;;;12.00;99.90;;;;;;6210574;23;20103;-65
2022/07/04 02:42:35;;;;;;;7.05;1.63;;;12.00;99.90;;;;;;6238219;23;20027;-65
2022/07/04 02:45:01;;;;;;;7.38;2.75;;;12.00;99.90;;;;;;6210915;23;20111;-65
2022/07/04 02:47:27;;;;;;;9.25;2.15;;;12.00;99.90;;;;;;6210222;23;20028;-65
2022/07/04 02:49:53;;;;;;;5.40;1.75;;;12.00;99.90;;;;;;6237620;23;20039;-65
2022/07/04 02:52:19;;;;;;;17.40;1.95;;;12.00;99.90;;;;;;6236948;23;20459;-65
2022/07/04 02:54:46;;;;;;;6.40;1.63;;;12.00;99.90;;;;;;6238777;23;20023;-65
2022/07/04 02:57:12;;;;;;;7.18;2.00;;;12.00;99.90;;;;;;6236518;23;20251;-65
2022/07/04 02:59:38;;;;;;;6.90;1.73;;;12.00;99.90;;;;;;6211390;23;20020;-65
2022/07/04 03:02:04;;;;;;;7.00;1.40;;;12.00;99.90;;;;;;6210581;23;20407;-65
2022/07/04 03:04:30;;;;;;;15.02;2.00;;;12.00;99.90;;;;;;6209980;23;20012;-65
2022/07/04 03:06:56;;;;;;;6.10;1.98;;;12.00;99.90;;;;;;6237684;23;20051;-65
2022/07/04 03:09:21;;;;;;;4.88;2.22;;;12.00;99.90;;;;;;6237139;23;20074;-65
2022/07/04 03:11:47;;;;;;;5.18;2.38;;;12.00;99.90;;;;;;6238773;23;20325;-65
2022/07/04 03:14:13;;;;;;;2.40;2.20;;;12.00;99.90;;;;;;6236500;23;20756;-65
2022/07/04 03:16:39;;;;;;;3.92;1.90;;;12.00;99.90;;;;;;6238660;23;20054;-65
2022/07/04 03:19:04;;;;;;;4.18;2.00;;;12.00;99.90;;;;;;6237054;23;20027;-65
2022/07/04 03:21:30;;;;;;;5.40;2.10;;;12.00;99.90;;;;;;6237943;23;20008;-65
2022/07/04 03:23:58;;;;;;;2.75;1.92;;;12.00;99.90;;;;;;6210719;23;20435;-65
2022/07/04 03:26:31;;;;;;;3.70;2.13;;;12.00;99.90;;;;;;6237003;23;20447;-65
2022/07/04 03:28:58;;;;;;;9.43;2.30;;;12.00;99.90;;;;;;6238130;23;20016;-65
2022/07/04 03:31:25;;;;;;;4.97;2.33;;;12.00;99.90;;;;;;6237366;23;20854;-65
2022/07/04 03:33:51;;;;;;;3.63;2.40;;;12.10;99.90;;;;;;6238242;23;20035;-65
2022/07/04 03:36:17;;;;;;;4.70;2.70;;;12.10;99.90;;;;;;6210340;23;20039;-65
2022/07/04 03:38:43;;;;;;;4.70;2.13;;;12.10;99.90;;;;;;6239331;23;20019;-65
2022/07/04 03:41:09;;;;;;;9.70;2.47;;;12.10;99.90;;;;;;6240086;23;20067;-65
2022/07/04 03:43:35;;;;;;;6.65;2.55;;;12.10;99.90;;;;;;6211334;23;20078;-65
2022/07/04 03:46:01;;;;;;;7.93;2.75;;;12.10;99.90;;;;;;6239305;23;20455;-65
2022/07/04 03:48:27;;;;;;;5.63;2.05;;;12.20;99.90;;;;;;6238784;23;20107;-65
2022/07/04 03:50:54;;;;;;;7.07;2.53;;;12.20;99.90;;;;;;6240448;23;20431;-65
2022/07/04 03:53:20;;;;;;;2.88;2.13;;;12.20;99.90;;;;;;6238344;23;20355;-65
2022/07/04 03:55:46;;;;;;;7.03;2.47;;;12.30;99.90;;;;;;6240249;23;20047;-65
2022/07/04 03:58:12;;;;;;;9.30;2.67;;;12.30;99.90;;;;;;6239149;23;20335;-65
2022/07/04 04:00:38;;;;;;;9.35;2.83;;;12.30;99.90;;;;;;6239106;22;20012;-65
2022/07/04 04:05:26;;;;;;;6.68;2.40;;;12.30;99.90;;;;;;6237566;23;20031;-65
2022/07/04 04:05:49;;;;;;;4.47;2.60;;;12.30;99.90;;;;;;6238332;23;20348;-65
2022/07/04 04:08:15;;;;;;;3.85;2.42;;;12.40;99.90;;;;;;6239796;22;20020;-65
2022/07/04 04:10:42;;;;;;;6.78;2.67;;;12.40;99.90;;;;;;6238625;23;20048;-65
2022/07/04 04:13:08;;;;;;;8.68;2.75;;;12.40;99.90;;;;;;6238888;23;20028;-66
2022/07/04 04:15:34;;;;;;;7.10;2.55;;;12.40;99.90;;;;;;6239442;23;20016;-65
2022/07/04 04:17:59;;;;;;;5.60;2.55;;;12.50;99.90;;;;;;6238734;23;20103;-65
2022/07/04 04:20:25;;;;;;;6.45;2.83;;;12.50;99.90;;;;;;6212228;23;20095;-65
2022/07/04 04:22:51;;;;;;;5.35;2.90;;;12.50;99.90;;;;;;6211666;23;20788;-65
2022/07/04 04:25:17;;;;;;;4.72;3.00;;;12.60;99.90;;;;;;6212211;23;20031;-65
2022/07/04 04:27:43;;;;;;;9.68;3.15;;;12.60;99.90;;;;;;6211039;23;20375;-65
2022/07/04 04:30:09;;;;;;;5.78;2.95;;;12.70;99.90;;;;;;6212059;23;20035;-65
2022/07/04 04:32:35;;;;;;;5.45;2.70;;;12.80;99.90;;;;;;6239416;23;20016;-65
2022/07/04 04:35:01;;;;;;;9.38;3.30;;;12.80;99.90;;;;;;6186756;23;20027;-65
2022/07/04 04:37:29;;;;;;;6.43;2.90;;;12.90;99.90;;;;;;6239925;23;20060;-65
2022/07/04 04:39:55;;;;;;;9.88;3.55;;;12.90;99.90;;;;;;6211103;23;20036;-65
2022/07/04 04:42:21;;;;;;;11.55;2.95;;;13.00;99.90;;;;;;6212672;23;20012;-65
2022/07/04 04:44:47;;;;;;;5.47;2.70;;;13.10;99.90;;;;;;6237570;23;20019;-65
2022/07/04 04:47:13;;;;;;;4.20;2.90;;;13.20;99.90;;;;;;6239252;23;20024;-65
2022/07/04 04:49:38;;;;;;;5.22;2.78;;;13.30;99.90;;;;;;6211236;23;20422;-65
2022/07/04 04:52:05;;;;;;;14.57;3.80;;;13.40;99.90;;;;;;6238737;23;20039;-65
2022/07/04 04:54:32;;;;;;;7.40;2.88;;;13.50;99.90;;;;;;6239842;23;20040;-65
2022/07/04 04:56:58;;;;;;;5.78;2.95;;;13.60;99.90;;;;;;6237969;23;20031;-66
2022/07/04 04:59:24;;;;;;;7.15;3.20;;;13.70;99.90;;;;;;6239446;23;20518;-65
2022/07/04 05:01:49;;;;;;;6.40;3.40;;;13.70;99.90;;;;;;6210896;23;20031;-65
2022/07/04 05:04:15;;;;;;;12.82;2.88;;;13.80;99.90;;;;;;6212322;23;20055;-65
2022/07/04 05:06:41;;;;;;;5.75;3.25;;;13.90;99.90;;;;;;6211445;23;20062;-65
2022/07/04 05:09:07;;;;;;;7.18;3.20;;;14.10;99.90;;;;;;6238883;23;20101;-65
2022/07/04 05:11:33;;;;;;;6.55;2.78;;;14.50;99.90;;;;;;6211702;23;20027;-65
2022/07/04 05:13:59;;;;;;;10.05;3.08;;;15.00;99.90;;;;;;6211425;23;20098;-65
2022/07/04 05:16:33;;;;;;;8.60;3.15;;;15.50;99.90;;;;;;6239823;23;20066;-65
2022/07/04 05:19:00;;;;;;;6.03;2.95;;;15.60;99.90;;;;;;6210673;23;20024;-65
2022/07/04 05:21:28;;;;;;;3.53;2.20;;;15.40;99.90;;;;;;6239128;23;20232;-65
2022/07/04 05:23:54;;;;;;;4.97;3.00;;;15.20;99.90;;;;;;6235846;23;20043;-65
2022/07/04 05:26:21;;;;;;;7.78;3.42;;;15.10;99.90;;;;;;6238262;23;20020;-65
2022/07/04 05:28:47;;;;;;;6.45;3.05;;;15.00;99.90;;;;;;6238577;23;20020;-65
2022/07/04 05:31:13;;;;;;;6.25;2.80;;;14.90;99.90;;;;;;6237752;23;20024;-65
2022/07/04 05:33:38;;;;;;;6.10;2.92;;;14.90;99.90;;;;;;6239495;23;20039;-65
2022/07/04 05:36:04;;;;;;;6.18;3.08;;;14.90;99.90;;;;;;6185689;23;20533;-65
2022/07/04 05:38:30;;;;;;;11.90;3.78;;;15.00;99.90;;;;;;6238758;23;20028;-65
2022/07/04 05:40:57;;;;;;;6.80;2.70;;;15.00;99.90;;;;;;6237298;23;20063;-65
2022/07/04 05:43:25;;;;;;;7.15;2.80;;;15.20;99.90;;;;;;6238987;23;20027;-66
2022/07/04 05:45:51;;;;;;;5.72;2.80;;;15.30;99.90;;;;;;6210521;23;20016;-65
2022/07/04 05:48:17;;;;;;;8.32;2.97;;;15.30;99.90;;;;;;6237968;23;20097;-65
2022/07/04 05:50:43;;;;;;;9.02;3.10;;;15.30;99.90;;;;;;6238817;23;20443;-65
2022/07/04 05:53:10;;;;;;;8.65;2.75;;;15.30;99.90;;;;;;6237940;23;20070;-65
2022/07/04 05:55:35;;;;;;;7.50;3.13;;;15.40;99.90;;;;;;6238489;23;20838;-65
2022/07/04 05:58:01;;;;;;;7.70;3.65;;;15.50;99.90;;;;;;6210783;23;20016;-65
2022/07/04 06:00:27;;;;;;;6.65;3.00;;;15.60;99.90;;;;;;6210946;23;20072;-65
2022/07/04 06:02:53;;;;;;;10.77;3.00;;;15.90;99.90;;;;;;6237000;23;20039;-65
2022/07/04 06:05:19;;;;;;;7.75;2.78;;;16.10;99.90;;;;;;6237630;23;20024;-65
2022/07/04 06:07:44;;;;;;;5.97;2.22;;;16.20;99.90;;;;;;6211385;23;20459;-65
2022/07/04 06:10:11;;;;;;;5.70;2.85;;;16.30;99.90;;;;;;6210921;23;20012;-65
2022/07/04 06:12:37;;;;;;;5.78;2.42;;;16.40;99.90;;;;;;6211813;23;20027;-65
2022/07/04 06:15:05;;;;;;;8.63;2.63;;;16.50;99.90;;;;;;6210101;23;20027;-65
2022/07/04 06:17:30;;;;;;;8.25;2.60;;;16.60;99.90;;;;;;6211365;23;20020;-65
2022/07/04 06:19:56;;;;;;;9.07;2.78;;;16.70;99.90;;;;;;6237019;23;20022;-65
2022/07/04 06:22:22;;;;;;;8.70;3.20;;;16.80;99.90;;;;;;6238114;23;20121;-65
2022/07/04 06:24:48;;;;;;;7.45;3.10;;;16.90;99.90;;;;;;6237524;23;20028;-65
2022/07/04 06:27:13;;;;;;;6.22;3.45;;;16.90;99.90;;;;;;6238155;23;20019;-65
2022/07/04 06:29:40;;;;;;;4.03;2.90;;;17.00;99.90;;;;;;6238231;23;20020;-65
2022/07/04 06:32:06;;;;;;;11.10;2.95;;;17.00;99.90;;;;;;6210081;23;20023;-65
2022/07/04 06:37:17;;;;;;;5.03;2.53;;;17.10;99.90;;;;;;6213941;23;20024;-65
2022/07/04 06:39:43;;;;;;;8.63;2.58;;;17.00;99.90;;;;;;6211962;23;20012;-65
2022/07/04 06:42:09;;;;;;;6.78;2.38;;;17.00;99.90;;;;;;6210658;23;20016;-65
2022/07/04 06:44:34;;;;;;;5.40;2.30;;;17.00;99.90;;;;;;6185560;23;20438;-65
2022/07/04 06:47:00;;;;;;;5.50;2.47;;;17.00;99.90;;;;;;6237948;23;20028;-65
2022/07/04 06:49:29;;;;;;;3.33;2.00;;;17.10;99.90;;;;;;6236989;23;20086;-64
2022/07/04 06:51:54;;;;;;;4.13;1.92;;;17.30;99.90;;;;;;6238384;23;20020;-65
2022/07/04 06:54:20;;;;;;;5.93;2.10;;;17.40;99.90;;;;;;6236383;23;20504;-64
2022/07/04 06:56:46;;;;;;;4.60;1.83;;;17.50;99.90;;;;;;6211544;23;20078;-65
2022/07/04 06:59:11;;;;;;;3.65;1.77;;;17.60;99.90;;;;;;6185296;23;20020;-65
2022/07/04 07:01:37;;;;;;;6.70;2.20;;;17.70;99.90;;;;;;6238081;23;20135;-65
2022/07/04 07:04:09;;;;;;;4.13;1.90;;;17.80;99.90;;;;;;6238447;23;20051;-65
2022/07/04 07:06:34;;;;;;;6.75;2.00;;;18.00;99.90;;;;;;6236922;23;20443;-65
2022/07/04 07:09:00;;;;;;;5.90;2.00;;;18.10;99.90;;;;;;6238117;23;20031;-64
2022/07/04 07:11:26;;;;;;;8.85;1.90;;;18.30;99.90;;;;;;6236201;23;20024;-64
2022/07/04 07:13:52;;;;;;;9.50;2.50;;;18.40;99.90;;;;;;6239353;23;20516;-64
2022/07/04 07:16:18;;;;;;;8.80;2.08;;;18.70;99.90;;;;;;6238347;23;20024;-65
2022/07/04 07:18:44;;;;;;;9.50;2.20;;;19.00;99.90;;;;;;6240015;23;20016;-65
2022/07/04 07:21:10;;;;;;;7.90;1.83;;;19.20;99.90;;;;;;6239382;23;20426;-65
2022/07/04 07:23:41;;;;;;;6.65;1.80;;;19.40;99.90;;;;;;6212107;23;20018;-65
2022/07/04 07:26:06;;;;;;;7.53;1.98;;;19.50;99.90;;;;;;6212783;23;20108;-65
2022/07/04 07:28:32;;;;;;;6.35;1.52;;;19.70;99.90;;;;;;6211265;23;20502;-65
2022/07/04 07:30:58;;;;;;;10.38;2.10;;;19.90;99.90;;;;;;6240193;23;20415;-64
2022/07/04 07:33:24;;;;;;;5.78;2.00;;;19.70;99.90;;;;;;6238085;23;20020;-65
2022/07/04 07:35:49;;;;;;;4.90;1.55;;;19.90;99.90;;;;;;6212883;23;20090;-65
2022/07/04 07:38:15;;;;;;;4.95;1.23;;;20.20;99.90;;;;;;6238679;23;20024;-65
2022/07/04 07:40:41;;;;;;;7.75;1.67;;;20.50;99.90;;;;;;6237551;23;20093;-65
2022/07/04 07:43:07;;;;;;;10.85;2.00;;;20.50;99.70;;;;;;6212931;23;20027;-65
2022/07/04 07:45:33;;;;;;;4.82;1.25;;;20.40;99.90;;;;;;6237629;23;20091;-65
2022/07/04 07:47:59;;;;;;;5.53;2.00;;;20.10;99.90;;;;;;6212680;23;20074;-63
2022/07/04 07:50:25;;;;;;;3.47;1.75;;;19.90;99.90;;;;;;6210301;23;20023;-64
2022/07/04 07:52:50;;;;;;;7.28;2.00;;;19.60;99.90;;;;;;6239563;23;20016;-64
2022/07/04 07:55:16;;;;;;;7.20;1.40;;;19.50;99.90;;;;;;6238374;23;20020;-64
2022/07/04 07:57:42;;;;;;;5.07;1.70;;;19.50;99.90;;;;;;6239372;23;20016;-64
2022/07/04 08:00:08;;;;;;;6.40;1.75;;;19.90;99.90;;;;;;6238710;23;20048;-64
2022/07/04 08:05:18;;;;;;;9.13;1.58;;;20.90;99.90;;;;;;6239655;23;20058;-64
2022/07/04 08:07:44;;;;;;;11.90;2.10;;;21.30;99.90;;;;;;6237331;23;20016;-64
2022/07/04 08:10:09;;;;;;;7.80;2.13;;;21.30;97.30;;;;;;6239386;23;20016;-64
2022/07/04 08:12:36;;;;;;;2.95;1.30;;;21.20;98.60;;;;;;6210915;23;20056;-64
2022/07/04 08:15:02;;;;;;;4.75;1.23;;;20.90;98.80;;;;;;6239039;23;20087;-64
2022/07/04 08:17:28;;;;;;;3.20;1.23;;;20.70;99.10;;;;;;6210993;23;20024;-64
2022/07/04 08:19:54;;;;;;;3.33;1.48;;;20.50;99.50;;;;;;6238677;23;20019;-64
2022/07/04 08:22:19;;;;;;;3.80;1.58;;;20.70;99.90;;;;;;6212612;23;20063;-64
2022/07/04 08:24:45;;;;;;;3.33;1.52;;;21.10;99.90;;;;;;6235044;23;20512;-64
2022/07/04 08:27:13;;;;;;;7.30;1.73;;;21.60;97.40;;;;;;6239336;23;20055;-64
2022/07/04 08:29:38;;;;;;;6.45;1.63;;;21.60;93.70;;;;;;6210517;23;20083;-64
2022/07/04 08:32:07;;;;;;;4.30;1.33;;;21.30;91.40;;;;;;6211992;23;20487;-64
2022/07/04 08:34:33;;;;;;;4.43;1.20;;;21.30;90.90;;;;;;6210587;23;20465;-64
2022/07/04 08:36:59;;;;;;;4.80;1.42;;;21.00;88.00;;;;;;6238427;23;20024;-64
2022/07/04 08:39:25;;;;;;;3.63;1.13;;;20.70;92.90;;;;;;6238844;23;20338;-64
2022/07/04 08:41:56;;;;;;;13.40;1.45;;;20.40;96.00;;;;;;6210691;23;20027;-64
2022/07/04 08:44:25;;;;;;;3.67;1.05;;;20.00;96.80;;;;;;6239037;23;20012;-64
2022/07/04 08:46:52;;;;;;;5.45;1.30;;;19.80;98.60;;;;;;6210326;23;20020;-64
2022/07/04 08:49:23;;;;;;;6.32;1.40;;;19.50;99.90;;;;;;6211227;23;20378;-64
2022/07/04 08:51:58;;;;;;;5.57;1.25;;;19.20;99.90;;;;;;6237170;23;20016;-64
2022/07/04 08:59:55;;;;;;;3.72;1.10;;;18.70;99.90;;;;;;6237757;23;20103;-64
2022/07/04 09:02:22;;;;;;;4.45;1.15;;;18.50;99.90;;;;;;6211921;23;20016;-64
2022/07/04 09:04:50;;;;;;;4.28;1.23;;;18.40;99.90;;;;;;6237197;23;20079;-67
2022/07/04 09:07:17;;;;;;;4.18;1.13;;;18.30;99.90;;;;;;6237565;23;20008;-67
2022/07/04 09:09:44;;;;;;;4.03;1.00;;;18.20;99.90;;;;;;6238011;23;20339;-69
2022/07/04 09:12:11;;;;;;;4.53;1.60;;;18.10;99.90;;;;;;6237332;23;20072;-68
2022/07/04 09:14:39;;;;;;;7.18;1.50;;;18.10;99.90;;;;;;6211209;23;20340;-68
2022/07/04 09:17:06;;;;;;;4.40;1.65;;;18.50;99.90;;;;;;6209970;23;20052;-68
2022/07/04 09:19:32;;;;;;;3.90;1.40;;;18.80;99.90;;;;;;6235759;23;20806;-68
2022/07/04 09:22:10;;;;;;;4.70;2.05;;;19.00;99.90;;;;;;6235610;23;20020;-67
2022/07/04 09:24:47;;;;;;;5.47;1.30;;;19.00;99.90;;;;;;6237397;23;20039;-68
2022/07/04 09:27:39;;;;;;;5.22;1.98;;;19.00;99.90;;;;;;6238986;23;20020;-68
2022/07/04 09:30:06;;;;;;;4.78;1.30;;;19.00;99.90;;;;;;6236353;23;20384;-68
2022/07/04 09:32:43;;;;;;;6.78;1.83;;;19.00;99.90;;;;;;6185375;23;20023;-68
2022/07/04 09:35:20;;;;;;;2.03;0.93;;;19.00;99.90;;;;;;6210396;23;20064;-68
2022/07/04 09:37:48;;;;;;;3.90;1.25;;;19.00;99.90;;;;;;6209103;23;20035;-67
2022/07/04 09:43:23;;;;;;;3.53;0.88;;;19.30;99.90;;;;;;6209811;23;20027;-68
2022/07/04 09:45:59;;;;;;;4.35;1.30;;;19.50;99.90;;;;;;6210077;23;20030;-69
2022/07/04 09:48:25;;;;;;;6.57;1.05;;;20.00;99.90;;;;;;6236044;23;20032;-68
2022/07/04 09:50:51;;;;;;;6.07;1.23;;;20.50;99.90;;;;;;6234749;23;20016;-69
2022/07/04 09:53:18;;;;;;;2.10;0.80;;;21.00;99.90;;;;;;6186490;23;20023;-68
2022/07/04 09:55:47;;;;;;;4.55;1.23;;;21.50;97.80;;;;;;6209534;23;20020;-68
2022/07/04 09:58:15;;;;;;;6.18;1.40;;;21.80;94.20;;;;;;6211269;23;20074;-69
2022/07/04 10:00:45;;;;;;;3.25;0.98;;;21.80;91.80;;;;;;6209306;23;20012;-68
2022/07/04 10:03:17;;;;;;;3.70;1.20;;;21.60;90.30;;;;;;6209180;23;20146;-69
2022/07/04 10:05:46;;;;;;;1.65;0.88;;;21.50;90.30;;;;;;6208507;23;20099;-68
2022/07/04 10:08:12;;;;;;;2.28;0.73;;;21.20;91.90;;;;;;6234794;23;20046;-68
2022/07/04 10:10:39;;;;;;;3.15;1.30;;;21.10;95.90;;;;;;6235567;23;20387;-68
2022/07/04 10:13:10;;;;;;;5.00;1.05;;;20.60;92.60;;;;;;6234418;23;20474;-68
2022/07/04 10:15:41;;;;;;;3.35;0.98;;;20.00;92.70;;;;;;6235926;23;20458;-68
2022/07/04 10:18:08;;;;;;;3.53;1.10;;;19.60;96.40;;;;;;6237034;23;20067;-67
2022/07/04 10:20:35;;;;;;;2.90;0.95;;;19.40;97.90;;;;;;6235937;23;20043;-68
2022/07/04 10:23:01;;;;;;;2.10;0.90;;;19.20;99.90;;;;;;6236983;23;20020;-67
2022/07/04 10:25:28;;;;;;;0.93;0.70;;;19.20;99.90;;;;;;6237311;23;20098;-68
2022/07/04 10:27:53;;;;;;;1.48;0.60;;;19.40;99.60;;;;;;6237905;23;20043;-69
2022/07/04 10:30:24;;;;;;;2.30;0.73;;;19.70;99.80;;;;;;6236674;23;20183;-68
2022/07/04 10:32:51;;;;;;;3.17;0.50;;;19.90;94.60;;;;;;6237411;23;20020;-68
2022/07/04 10:35:17;;;;;;;1.73;0.73;;;19.90;85.70;;;;;;6234948;23;20028;-68
2022/07/04 10:38:04;;;;;;;2.65;1.05;;;19.90;89.80;;;;;;6235778;23;20350;-68
2022/07/04 10:40:49;;;;;;;0.85;0.47;;;19.70;69.30;;;;;;6236233;23;20028;-68
2022/07/04 10:43:31;;;;;;;1.15;0.52;;;19.50;66.70;;;;;;6234789;23;20018;-67
2022/07/04 10:46:10;;;;;;;2.17;0.65;;;19.50;81.50;;;;;;6235260;23;20020;-68
2022/07/04 10:48:36;;;;;;;1.50;0.40;;;19.50;79.40;;;;;;6235975;23;20020;-68
2022/07/04 10:51:03;;;;;;;2.00;0.57;;;19.70;80.40;;;;;;6237952;22;20020;-68
2022/07/04 10:53:30;;;;;;;1.83;0.70;;;19.90;70.70;;;;;;6241687;23;20020;-68
2022/07/04 10:56:14;;;;;;;3.90;0.93;;;20.00;69.30;;;;;;6237624;23;20776;-68
2022/07/04 10:58:42;;;;;;;1.42;0.60;;;20.10;70.60;;;;;;6238410;23;20470;-68
2022/07/04 11:01:16;;;;;;;0.75;0.60;;;20.30;72.50;;;;;;6239049;23;20024;-69
2022/07/04 11:03:51;;;;;;;1.60;0.60;;;20.40;71.10;;;;;;6238015;23;20457;-69
2022/07/04 11:06:32;;;;;;;1.42;0.77;;;20.40;68.60;;;;;;6240415;23;20030;-68
2022/07/04 11:09:24;;;;;;;1.30;0.63;;;20.60;77.60;;;;;;6236114;23;20439;-68
2022/07/04 11:11:50;;;;;;;2.78;0.88;;;20.30;81.30;;;;;;6213166;23;20347;-69
2022/07/04 11:14:37;;;;;;;1.83;0.80;;;20.20;86.00;;;;;;6238310;23;20042;-68
2022/07/04 11:17:19;;;;;;;4.22;0.85;;;20.00;85.20;;;;;;6237552;23;20024;-68
2022/07/04 11:19:45;;;;;;;2.58;0.80;;;19.90;90.20;;;;;;6238228;23;20024;-68
2022/07/04 11:22:11;;;;;;;1.67;0.70;;;19.80;82.80;;;;;;6239110;23;20013;-69
2022/07/04 11:24:39;;;;;;;3.25;0.85;;;19.70;85.50;;;;;;6213130;23;20170;-69
2022/07/04 11:27:08;;;;;;;2.88;1.00;;;19.80;93.70;;;;;;6237191;23;20093;-68
2022/07/04 11:29:34;;;;;;;1.92;0.82;;;20.00;90.00;;;;;;6237911;23;20012;-68
2022/07/04 11:32:05;;;;;;;1.58;0.90;;;20.30;93.90;;;;;;6237480;23;20473;-68
2022/07/04 11:34:32;;;;;;;5.30;1.00;;;20.60;85.20;;;;;;6237132;23;20017;-69
2022/07/04 11:37:01;;;;;;;5.43;1.20;;;20.80;83.80;;;;;;6238805;23;20020;-69
2022/07/04 11:39:27;;;;;;;3.72;0.90;;;20.90;78.50;;;;;;6240548;23;20080;-68
2022/07/04 11:47:41;;;;;;;4.20;0.95;;;20.80;86.50;;;;;;6238799;23;20023;-70
2022/07/04 11:50:19;;;;;;;2.42;1.10;;;20.70;62.30;;;;;;6238277;23;20024;-69
2022/07/04 11:52:47;;;;;;;2.20;0.88;;;20.50;71.70;;;;;;6236165;23;20158;-69
2022/07/04 11:55:15;;;;;;;1.95;0.57;;;20.40;82.50;;;;;;6263334;22;20020;-68
2022/07/04 11:57:52;;;;;;;2.63;0.68;;;20.40;74.10;;;;;;6238540;23;20028;-69
2022/07/04 12:00:21;;;;;;;4.55;0.75;;;20.40;71.60;;;;;;6236466;23;20016;-70
2022/07/04 12:02:48;;;;;;;2.42;0.60;;;20.70;74.00;;;;;;6236985;23;20039;-69
2022/07/04 12:05:16;;;;;;;1.63;0.80;;;20.70;72.30;;;;;;6235889;23;20021;-69
2022/07/04 12:07:44;;;;;;;2.45;0.80;;;20.60;61.40;;;;;;6237921;23;20024;-68
2022/07/04 12:10:15;;;;;;;2.38;0.90;;;20.50;91.60;;;;;;6234668;23;20136;-68
2022/07/04 12:12:54;;;;;;;1.10;0.70;;;20.60;76.50;;;;;;6235453;23;20413;-69
2022/07/04 12:15:21;;;;;;;1.98;0.60;;;20.70;57.10;;;;;;6235250;23;20451;-69
2022/07/04 12:17:54;;;;;;;1.20;0.60;;;20.80;56.70;;;;;;6234794;23;20020;-68
2022/07/04 12:20:24;;;;;;;1.23;0.50;;;20.90;60.40;;;;;;6236011;23;20024;-69
2022/07/04 12:22:52;;;;;;;1.88;0.77;;;20.90;59.70;;;;;;6235538;23;20028;-69
2022/07/04 12:25:34;;;;;;;2.33;0.70;;;20.80;42.50;;;;;;6238311;23;20012;-69
2022/07/04 12:28:03;;;;;;;3.08;0.70;;;20.60;56.10;;;;;;6236711;23;20137;-69
2022/07/04 12:30:32;;;;;;;0.85;0.60;;;20.60;63.00;;;;;;6237110;23;20028;-68
2022/07/04 12:33:03;;;;;;;5.55;0.82;;;20.80;69.10;;;;;;6237253;23;20669;-69
2022/07/04 12:35:47;;;;;;;1.05;0.40;;;20.90;53.70;;;;;;6237807;23;20412;-69
2022/07/04 12:38:13;;;;;;;2.10;0.50;;;20.80;35.10;;;;;;6238885;22;20477;-69
2022/07/04 12:41:11;;;;;;;1.33;0.50;;;20.60;48.20;;;;;;6210190;23;20016;-69
2022/07/04 12:43:42;;;;;;;3.60;0.80;;;20.40;56.60;;;;;;6237534;23;20040;-70
2022/07/04 12:46:31;;;;;;;3.92;0.63;;;20.40;63.80;;;;;;6237509;23;20028;-69
2022/07/04 12:48:57;;;;;;;6.77;0.80;;;20.50;57.40;;;;;;6231948;23;20017;-70
2022/07/04 12:51:25;;;;;;;1.58;0.60;;;20.50;34.60;;;;;;6237832;23;20024;-69
2022/07/04 12:53:53;;;;;;;1.25;0.57;;;20.40;50.50;;;;;;6237919;23;20413;-69
2022/07/04 12:56:45;;;;;;;2.08;0.50;;;20.40;54.10;;;;;;6238208;23;20032;-69
2022/07/04 12:59:18;;;;;;;1.95;0.75;;;20.50;45.80;;;;;;6237496;23;20020;-70
2022/07/04 13:01:44;;;;;;;2.55;0.60;;;20.70;59.30;;;;;;6235697;23;20016;-70
2022/07/04 13:04:11;;;;;;;1.25;0.55;;;20.70;33.40;;;;;;6186604;23;20336;-70
2022/07/04 13:06:38;;;;;;;1.98;0.52;;;20.80;24.10;;;;;;6208945;23;20020;-69
2022/07/04 13:09:05;;;;;;;1.45;0.73;;;20.90;44.80;;;;;;6234241;23;20077;-70
2022/07/04 13:14:15;;;;;;;1.27;0.55;;;20.70;33.50;;;;;;6233515;23;20024;-69